sensor_id;sensor_type;location;lat;lon;timestamp;temperature;humidity
67275;DHT22;55463;52.324;5.122;2024-03-06T00:01:42;6.94;99.62
67275;DHT22;55463;52.324;5.122;2024-03-06T00:04:07;6.96;99.63
67275;DHT22;55463;52.324;5.122;2024-03-06T00:06:33;6.94;99.64
67275;DHT22;55463;52.324;5.122;2024-03-06T00:08:59;6.93;99.52
67275;DHT22;55463;52.324;5.122;2024-03-06T00:11:24;6.92;99.60
67275;DHT22;55463;52.324;5.122;2024-03-06T00:13:50;6.90;99.72
67275;DHT22;55463;52.324;5.122;2024-03-06T00:16:16;6.93;99.58
67275;DHT22;55463;52.324;5.122;2024-03-06T00:18:42;6.93;99.48
67275;DHT22;55463;52.324;5.122;2024-03-06T00:21:07;6.90;99.50
67275;DHT22;55463;52.324;5.122;2024-03-06T00:23:32;6.90;99.46
67275;DHT22;55463;52.324;5.122;2024-03-06T00:25:58;6.90;99.57
67275;DHT22;55463;52.324;5.122;2024-03-06T00:28:23;6.90;99.64
67275;DHT22;55463;52.324;5.122;2024-03-06T00:30:49;6.87;99.61
67275;DHT22;55463;52.324;5.122;2024-03-06T00:33:14;6.92;99.75
67275;DHT22;55463;52.324;5.122;2024-03-06T00:35:40;6.92;99.87
67275;DHT22;55463;52.324;5.122;2024-03-06T00:38:05;6.92;99.74
67275;DHT22;55463;52.324;5.122;2024-03-06T00:40:31;6.94;99.99
67275;DHT22;55463;52.324;5.122;2024-03-06T00:42:57;6.92;99.99
67275;DHT22;55463;52.324;5.122;2024-03-06T00:45:23;6.93;99.93
67275;DHT22;55463;52.324;5.122;2024-03-06T00:47:48;6.94;99.92
67275;DHT22;55463;52.324;5.122;2024-03-06T00:50:14;6.92;99.81
67275;DHT22;55463;52.324;5.122;2024-03-06T00:52:41;6.94;99.93
67275;DHT22;55463;52.324;5.122;2024-03-06T00:55:08;6.96;99.99
67275;DHT22;55463;52.324;5.122;2024-03-06T00:57:33;6.93;99.94
67275;DHT22;55463;52.324;5.122;2024-03-06T00:59:59;6.94;99.99
67275;DHT22;55463;52.324;5.122;2024-03-06T01:02:24;6.94;99.98
67275;DHT22;55463;52.324;5.122;2024-03-06T01:04:50;6.92;99.99
67275;DHT22;55463;52.324;5.122;2024-03-06T01:07:15;6.90;99.99
67275;DHT22;55463;52.324;5.122;2024-03-06T01:09:41;6.96;99.99
67275;DHT22;55463;52.324;5.122;2024-03-06T01:12:06;6.96;99.99
67275;DHT22;55463;52.324;5.122;2024-03-06T01:14:32;6.96;99.99
67275;DHT22;55463;52.324;5.122;2024-03-06T01:16:58;6.94;99.99
67275;DHT22;55463;52.324;5.122;2024-03-06T01:19:24;6.94;99.99
67275;DHT22;55463;52.324;5.122;2024-03-06T01:21:49;6.94;99.99
67275;DHT22;55463;52.324;5.122;2024-03-06T01:24:14;6.96;99.99
67275;DHT22;55463;52.324;5.122;2024-03-06T01:26:40;6.96;99.99
67275;DHT22;55463;52.324;5.122;2024-03-06T01:29:08;6.96;99.99
67275;DHT22;55463;52.324;5.122;2024-03-06T01:31:33;6.94;99.99
67275;DHT22;55463;52.324;5.122;2024-03-06T01:33:59;6.92;99.99
67275;DHT22;55463;52.324;5.122;2024-03-06T01:36:24;6.93;99.99
67275;DHT22;55463;52.324;5.122;2024-03-06T01:38:49;6.92;99.99
67275;DHT22;55463;52.324;5.122;2024-03-06T01:41:15;6.87;99.99
67275;DHT22;55463;52.324;5.122;2024-03-06T01:43:40;6.86;99.99
67275;DHT22;55463;52.324;5.122;2024-03-06T01:46:06;6.87;99.99
67275;DHT22;55463;52.324;5.122;2024-03-06T01:48:32;6.87;99.99
67275;DHT22;55463;52.324;5.122;2024-03-06T01:50:59;6.89;99.99
67275;DHT22;55463;52.324;5.122;2024-03-06T01:53:29;6.86;99.99
67275;DHT22;55463;52.324;5.122;2024-03-06T01:55:56;6.86;99.99
67275;DHT22;55463;52.324;5.122;2024-03-06T01:58:21;6.87;99.99
67275;DHT22;55463;52.324;5.122;2024-03-06T02:00:49;6.86;99.99
67275;DHT22;55463;52.324;5.122;2024-03-06T02:03:15;6.85;99.99
67275;DHT22;55463;52.324;5.122;2024-03-06T02:05:43;6.83;99.99
67275;DHT22;55463;52.324;5.122;2024-03-06T02:08:09;6.80;99.99
67275;DHT22;55463;52.324;5.122;2024-03-06T02:10:34;6.80;99.99
67275;DHT22;55463;52.324;5.122;2024-03-06T02:13:00;6.77;99.99
67275;DHT22;55463;52.324;5.122;2024-03-06T02:15:25;6.77;99.99
67275;DHT22;55463;52.324;5.122;2024-03-06T02:17:51;6.76;99.99
67275;DHT22;55463;52.324;5.122;2024-03-06T02:20:25;6.76;99.99
67275;DHT22;55463;52.324;5.122;2024-03-06T02:22:50;6.73;99.99
67275;DHT22;55463;52.324;5.122;2024-03-06T02:25:16;6.71;99.99
67275;DHT22;55463;52.324;5.122;2024-03-06T02:27:43;6.71;99.99
67275;DHT22;55463;52.324;5.122;2024-03-06T02:30:09;6.68;99.99
67275;DHT22;55463;52.324;5.122;2024-03-06T02:32:36;6.71;99.99
67275;DHT22;55463;52.324;5.122;2024-03-06T02:35:02;6.71;99.99
67275;DHT22;55463;52.324;5.122;2024-03-06T02:37:28;6.68;99.99
67275;DHT22;55463;52.324;5.122;2024-03-06T02:39:54;6.68;99.99
67275;DHT22;55463;52.324;5.122;2024-03-06T02:42:19;6.69;99.99
67275;DHT22;55463;52.324;5.122;2024-03-06T02:44:44;6.66;99.99
67275;DHT22;55463;52.324;5.122;2024-03-06T02:47:10;6.65;99.99
67275;DHT22;55463;52.324;5.122;2024-03-06T02:49:35;6.65;99.99
67275;DHT22;55463;52.324;5.122;2024-03-06T02:52:01;6.68;99.99
67275;DHT22;55463;52.324;5.122;2024-03-06T02:54:30;6.65;99.99
67275;DHT22;55463;52.324;5.122;2024-03-06T02:56:55;6.65;99.99
67275;DHT22;55463;52.324;5.122;2024-03-06T02:59:20;6.66;99.99
67275;DHT22;55463;52.324;5.122;2024-03-06T03:01:46;6.66;99.99
67275;DHT22;55463;52.324;5.122;2024-03-06T03:04:11;6.65;99.99
67275;DHT22;55463;52.324;5.122;2024-03-06T03:06:39;6.68;99.99
67275;DHT22;55463;52.324;5.122;2024-03-06T03:09:05;6.66;99.99
67275;DHT22;55463;52.324;5.122;2024-03-06T03:11:30;6.68;99.99
67275;DHT22;55463;52.324;5.122;2024-03-06T03:13:57;6.68;99.99
67275;DHT22;55463;52.324;5.122;2024-03-06T03:16:22;6.69;99.99
67275;DHT22;55463;52.324;5.122;2024-03-06T03:18:48;6.69;99.99
67275;DHT22;55463;52.324;5.122;2024-03-06T03:21:14;6.65;99.99
67275;DHT22;55463;52.324;5.122;2024-03-06T03:23:39;6.69;99.99
67275;DHT22;55463;52.324;5.122;2024-03-06T03:26:08;6.68;99.99
67275;DHT22;55463;52.324;5.122;2024-03-06T03:28:40;6.69;99.99
67275;DHT22;55463;52.324;5.122;2024-03-06T03:31:09;6.68;99.99
67275;DHT22;55463;52.324;5.122;2024-03-06T03:33:39;6.69;99.99
67275;DHT22;55463;52.324;5.122;2024-03-06T03:36:08;6.71;99.99
67275;DHT22;55463;52.324;5.122;2024-03-06T03:38:38;6.71;99.99
67275;DHT22;55463;52.324;5.122;2024-03-06T03:41:10;6.69;99.99
67275;DHT22;55463;52.324;5.122;2024-03-06T03:43:36;6.69;99.99
67275;DHT22;55463;52.324;5.122;2024-03-06T03:46:04;6.73;99.99
67275;DHT22;55463;52.324;5.122;2024-03-06T03:48:30;6.71;99.99
67275;DHT22;55463;52.324;5.122;2024-03-06T03:50:56;6.69;99.99
67275;DHT22;55463;52.324;5.122;2024-03-06T03:53:21;6.68;99.99
67275;DHT22;55463;52.324;5.122;2024-03-06T03:55:47;6.69;99.99
67275;DHT22;55463;52.324;5.122;2024-03-06T03:58:12;6.66;99.99
67275;DHT22;55463;52.324;5.122;2024-03-06T04:00:38;6.65;99.99
67275;DHT22;55463;52.324;5.122;2024-03-06T04:03:06;6.66;99.99
67275;DHT22;55463;52.324;5.122;2024-03-06T04:05:32;6.64;99.99
67275;DHT22;55463;52.324;5.122;2024-03-06T04:07:57;6.65;99.99
67275;DHT22;55463;52.324;5.122;2024-03-06T04:10:23;6.66;99.99
67275;DHT22;55463;52.324;5.122;2024-03-06T04:12:48;6.64;99.99
67275;DHT22;55463;52.324;5.122;2024-03-06T04:15:14;6.62;99.99
67275;DHT22;55463;52.324;5.122;2024-03-06T04:17:39;6.64;99.99
67275;DHT22;55463;52.324;5.122;2024-03-06T04:20:06;6.66;99.99
67275;DHT22;55463;52.324;5.122;2024-03-06T04:22:32;6.62;99.99
67275;DHT22;55463;52.324;5.122;2024-03-06T04:24:58;6.64;99.99
67275;DHT22;55463;52.324;5.122;2024-03-06T04:27:24;6.58;99.99
67275;DHT22;55463;52.324;5.122;2024-03-06T04:29:51;6.55;99.99
67275;DHT22;55463;52.324;5.122;2024-03-06T04:32:16;6.56;99.99
67275;DHT22;55463;52.324;5.122;2024-03-06T04:34:41;6.53;99.99
67275;DHT22;55463;52.324;5.122;2024-03-06T04:37:07;6.53;99.99
67275;DHT22;55463;52.324;5.122;2024-03-06T04:39:32;6.50;99.99
67275;DHT22;55463;52.324;5.122;2024-03-06T04:41:58;6.52;99.99
67275;DHT22;55463;52.324;5.122;2024-03-06T04:44:23;6.49;99.99
67275;DHT22;55463;52.324;5.122;2024-03-06T04:46:51;6.50;99.99
67275;DHT22;55463;52.324;5.122;2024-03-06T04:49:17;6.50;99.99
67275;DHT22;55463;52.324;5.122;2024-03-06T04:51:42;6.48;99.99
67275;DHT22;55463;52.324;5.122;2024-03-06T04:54:07;6.52;99.99
67275;DHT22;55463;52.324;5.122;2024-03-06T04:56:33;6.48;99.99
67275;DHT22;55463;52.324;5.122;2024-03-06T04:58:59;6.48;99.99
67275;DHT22;55463;52.324;5.122;2024-03-06T05:01:28;6.46;99.99
67275;DHT22;55463;52.324;5.122;2024-03-06T05:03:54;6.46;99.99
67275;DHT22;55463;52.324;5.122;2024-03-06T05:06:21;6.44;99.99
67275;DHT22;55463;52.324;5.122;2024-03-06T05:08:47;6.41;99.99
67275;DHT22;55463;52.324;5.122;2024-03-06T05:11:13;6.41;99.99
67275;DHT22;55463;52.324;5.122;2024-03-06T05:13:38;6.44;99.99
67275;DHT22;55463;52.324;5.122;2024-03-06T05:16:04;6.39;99.99
67275;DHT22;55463;52.324;5.122;2024-03-06T05:18:30;6.42;99.99
67275;DHT22;55463;52.324;5.122;2024-03-06T05:20:55;6.41;99.99
67275;DHT22;55463;52.324;5.122;2024-03-06T05:23:21;6.37;99.99
67275;DHT22;55463;52.324;5.122;2024-03-06T05:25:46;6.39;99.99
67275;DHT22;55463;52.324;5.122;2024-03-06T05:28:12;6.38;99.99
67275;DHT22;55463;52.324;5.122;2024-03-06T05:30:37;6.38;99.99
67275;DHT22;55463;52.324;5.122;2024-03-06T05:33:03;6.37;99.99
67275;DHT22;55463;52.324;5.122;2024-03-06T05:35:28;6.35;99.99
67275;DHT22;55463;52.324;5.122;2024-03-06T05:37:54;6.31;99.99
67275;DHT22;55463;52.324;5.122;2024-03-06T05:40:19;6.30;99.99
67275;DHT22;55463;52.324;5.122;2024-03-06T05:42:45;6.28;99.99
67275;DHT22;55463;52.324;5.122;2024-03-06T05:45:10;6.25;99.99
67275;DHT22;55463;52.324;5.122;2024-03-06T05:47:36;6.25;99.99
67275;DHT22;55463;52.324;5.122;2024-03-06T05:50:04;6.27;99.99
67275;DHT22;55463;52.324;5.122;2024-03-06T05:52:33;6.25;99.99
67275;DHT22;55463;52.324;5.122;2024-03-06T05:55:01;6.24;99.99
67275;DHT22;55463;52.324;5.122;2024-03-06T05:57:27;6.22;99.99
67275;DHT22;55463;52.324;5.122;2024-03-06T05:59:52;6.25;99.99
67275;DHT22;55463;52.324;5.122;2024-03-06T06:02:18;6.25;99.99
67275;DHT22;55463;52.324;5.122;2024-03-06T06:04:45;6.25;99.99
67275;DHT22;55463;52.324;5.122;2024-03-06T06:07:10;6.21;99.99
67275;DHT22;55463;52.324;5.122;2024-03-06T06:09:35;6.22;99.99
67275;DHT22;55463;52.324;5.122;2024-03-06T06:12:01;6.20;99.99
67275;DHT22;55463;52.324;5.122;2024-03-06T06:14:29;6.18;99.99
67275;DHT22;55463;52.324;5.122;2024-03-06T06:16:56;6.20;99.99
67275;DHT22;55463;52.324;5.122;2024-03-06T06:19:21;6.18;99.99
67275;DHT22;55463;52.324;5.122;2024-03-06T06:21:47;6.17;99.99
67275;DHT22;55463;52.324;5.122;2024-03-06T06:24:13;6.16;99.99
67275;DHT22;55463;52.324;5.122;2024-03-06T06:26:39;6.14;99.99
67275;DHT22;55463;52.324;5.122;2024-03-06T06:29:04;6.14;99.99
67275;DHT22;55463;52.324;5.122;2024-03-06T06:31:30;6.13;99.99
67275;DHT22;55463;52.324;5.122;2024-03-06T06:33:55;6.13;99.99
67275;DHT22;55463;52.324;5.122;2024-03-06T06:36:21;6.14;99.99
67275;DHT22;55463;52.324;5.122;2024-03-06T06:38:49;6.14;99.99
67275;DHT22;55463;52.324;5.122;2024-03-06T06:41:16;6.13;99.99
67275;DHT22;55463;52.324;5.122;2024-03-06T06:43:42;6.16;99.99
67275;DHT22;55463;52.324;5.122;2024-03-06T06:46:11;6.18;99.99
67275;DHT22;55463;52.324;5.122;2024-03-06T06:48:36;6.16;99.99
67275;DHT22;55463;52.324;5.122;2024-03-06T06:51:02;6.18;99.99
67275;DHT22;55463;52.324;5.122;2024-03-06T06:53:29;6.20;99.99
67275;DHT22;55463;52.324;5.122;2024-03-06T06:55:55;6.18;99.99
67275;DHT22;55463;52.324;5.122;2024-03-06T06:58:20;6.21;99.99
67275;DHT22;55463;52.324;5.122;2024-03-06T07:00:49;6.20;99.99
67275;DHT22;55463;52.324;5.122;2024-03-06T07:03:14;6.21;99.99
67275;DHT22;55463;52.324;5.122;2024-03-06T07:05:40;6.22;99.99
67275;DHT22;55463;52.324;5.122;2024-03-06T07:08:07;6.24;99.99
67275;DHT22;55463;52.324;5.122;2024-03-06T07:10:33;6.30;99.99
67275;DHT22;55463;52.324;5.122;2024-03-06T07:13:01;6.31;99.99
67275;DHT22;55463;52.324;5.122;2024-03-06T07:15:26;6.42;99.99
67275;DHT22;55463;52.324;5.122;2024-03-06T07:17:52;6.59;99.99
67275;DHT22;55463;52.324;5.122;2024-03-06T07:20:17;6.72;99.99
67275;DHT22;55463;52.324;5.122;2024-03-06T07:22:43;6.93;99.99
67275;DHT22;55463;52.324;5.122;2024-03-06T07:25:08;7.47;99.61
67275;DHT22;55463;52.324;5.122;2024-03-06T07:27:34;8.01;98.69
67275;DHT22;55463;52.324;5.122;2024-03-06T07:30:00;8.11;97.68
67275;DHT22;55463;52.324;5.122;2024-03-06T07:32:26;7.94;97.79
67275;DHT22;55463;52.324;5.122;2024-03-06T07:34:51;7.69;98.25
67275;DHT22;55463;52.324;5.122;2024-03-06T07:37:21;7.79;98.51
67275;DHT22;55463;52.324;5.122;2024-03-06T07:39:47;8.00;97.88
67275;DHT22;55463;52.324;5.122;2024-03-06T07:42:12;8.07;98.22
67275;DHT22;55463;52.324;5.122;2024-03-06T07:44:38;7.95;97.97
67275;DHT22;55463;52.324;5.122;2024-03-06T07:47:03;7.84;98.21
67275;DHT22;55463;52.324;5.122;2024-03-06T07:49:29;7.90;98.80
67275;DHT22;55463;52.324;5.122;2024-03-06T07:51:54;7.83;98.75
67275;DHT22;55463;52.324;5.122;2024-03-06T07:54:20;7.89;99.00
67275;DHT22;55463;52.324;5.122;2024-03-06T07:56:45;7.87;98.40
67275;DHT22;55463;52.324;5.122;2024-03-06T07:59:10;7.72;98.33
67275;DHT22;55463;52.324;5.122;2024-03-06T08:01:38;7.65;98.94
67275;DHT22;55463;52.324;5.122;2024-03-06T08:04:03;7.61;98.99
67275;DHT22;55463;52.324;5.122;2024-03-06T08:06:29;7.65;99.27
67275;DHT22;55463;52.324;5.122;2024-03-06T08:09:00;7.63;99.14
67275;DHT22;55463;52.324;5.122;2024-03-06T08:11:27;7.66;99.27
67275;DHT22;55463;52.324;5.122;2024-03-06T08:13:57;7.75;99.27
67275;DHT22;55463;52.324;5.122;2024-03-06T08:16:23;7.87;99.50
67275;DHT22;55463;52.324;5.122;2024-03-06T08:18:48;7.91;99.22
67275;DHT22;55463;52.324;5.122;2024-03-06T08:21:17;7.95;99.33
67275;DHT22;55463;52.324;5.122;2024-03-06T08:23:42;7.98;99.47
67275;DHT22;55463;52.324;5.122;2024-03-06T08:26:08;8.05;99.14
67275;DHT22;55463;52.324;5.122;2024-03-06T08:28:33;8.12;99.46
67275;DHT22;55463;52.324;5.122;2024-03-06T08:30:59;8.28;99.92
67275;DHT22;55463;52.324;5.122;2024-03-06T08:33:25;8.39;99.59
67275;DHT22;55463;52.324;5.122;2024-03-06T08:35:51;8.42;99.26
67275;DHT22;55463;52.324;5.122;2024-03-06T08:38:16;8.48;98.81
67275;DHT22;55463;52.324;5.122;2024-03-06T08:40:42;8.53;98.96
67275;DHT22;55463;52.324;5.122;2024-03-06T08:43:11;8.67;99.40
67275;DHT22;55463;52.324;5.122;2024-03-06T08:45:38;8.84;99.33
67275;DHT22;55463;52.324;5.122;2024-03-06T08:48:03;9.01;99.16
67275;DHT22;55463;52.324;5.122;2024-03-06T08:50:31;9.21;98.03
67275;DHT22;55463;52.324;5.122;2024-03-06T08:52:57;9.70;98.81
67275;DHT22;55463;52.324;5.122;2024-03-06T08:55:22;10.27;98.44
67275;DHT22;55463;52.324;5.122;2024-03-06T08:57:50;10.83;96.86
67275;DHT22;55463;52.324;5.122;2024-03-06T09:00:18;11.39;95.89
67275;DHT22;55463;52.324;5.122;2024-03-06T09:02:43;11.89;94.20
67275;DHT22;55463;52.324;5.122;2024-03-06T09:05:10;12.42;94.88
67275;DHT22;55463;52.324;5.122;2024-03-06T09:07:37;12.97;92.93
67275;DHT22;55463;52.324;5.122;2024-03-06T09:10:08;13.38;90.98
67275;DHT22;55463;52.324;5.122;2024-03-06T09:12:34;13.71;87.27
67275;DHT22;55463;52.324;5.122;2024-03-06T09:15:03;13.77;84.41
67275;DHT22;55463;52.324;5.122;2024-03-06T09:17:29;14.25;87.39
67275;DHT22;55463;52.324;5.122;2024-03-06T09:19:55;14.07;84.49
67275;DHT22;55463;52.324;5.122;2024-03-06T09:22:20;14.46;85.95
67275;DHT22;55463;52.324;5.122;2024-03-06T09:24:46;14.91;84.60
67275;DHT22;55463;52.324;5.122;2024-03-06T09:27:14;14.95;83.52
67275;DHT22;55463;52.324;5.122;2024-03-06T09:29:39;14.49;82.11
67275;DHT22;55463;52.324;5.122;2024-03-06T09:32:05;14.36;81.59
67275;DHT22;55463;52.324;5.122;2024-03-06T09:34:30;14.49;82.97
67275;DHT22;55463;52.324;5.122;2024-03-06T09:36:56;14.41;81.07
67275;DHT22;55463;52.324;5.122;2024-03-06T09:39:21;14.42;82.76
67275;DHT22;55463;52.324;5.122;2024-03-06T09:41:52;14.20;82.22
67275;DHT22;55463;52.324;5.122;2024-03-06T09:44:18;14.49;83.44
67275;DHT22;55463;52.324;5.122;2024-03-06T09:46:46;14.58;83.73
67275;DHT22;55463;52.324;5.122;2024-03-06T09:49:13;14.29;82.60
67275;DHT22;55463;52.324;5.122;2024-03-06T09:51:42;14.46;83.30
67275;DHT22;55463;52.324;5.122;2024-03-06T09:54:11;14.15;81.85
67275;DHT22;55463;52.324;5.122;2024-03-06T09:56:36;13.83;82.38
67275;DHT22;55463;52.324;5.122;2024-03-06T09:59:04;13.70;82.80
67275;DHT22;55463;52.324;5.122;2024-03-06T10:01:33;13.94;83.50
67275;DHT22;55463;52.324;5.122;2024-03-06T10:03:58;14.13;82.62
67275;DHT22;55463;52.324;5.122;2024-03-06T10:06:24;14.50;83.21
67275;DHT22;55463;52.324;5.122;2024-03-06T10:08:50;14.86;82.28
67275;DHT22;55463;52.324;5.122;2024-03-06T10:11:17;15.12;81.18
67275;DHT22;55463;52.324;5.122;2024-03-06T10:13:45;15.30;80.49
67275;DHT22;55463;52.324;5.122;2024-03-06T10:16:11;15.60;80.55
67275;DHT22;55463;52.324;5.122;2024-03-06T10:18:39;15.28;80.48
67275;DHT22;55463;52.324;5.122;2024-03-06T10:21:04;14.72;80.22
67275;DHT22;55463;52.324;5.122;2024-03-06T10:23:31;14.48;80.60
67275;DHT22;55463;52.324;5.122;2024-03-06T10:25:56;13.97;81.05
67275;DHT22;55463;52.324;5.122;2024-03-06T10:28:23;13.84;81.93
67275;DHT22;55463;52.324;5.122;2024-03-06T10:30:49;14.32;82.66
67275;DHT22;55463;52.324;5.122;2024-03-06T10:33:16;14.79;82.45
67275;DHT22;55463;52.324;5.122;2024-03-06T10:35:46;15.01;80.55
67275;DHT22;55463;52.324;5.122;2024-03-06T10:38:13;14.88;78.83
67275;DHT22;55463;52.324;5.122;2024-03-06T10:40:43;15.59;80.88
67275;DHT22;55463;52.324;5.122;2024-03-06T10:43:09;15.34;78.69
67275;DHT22;55463;52.324;5.122;2024-03-06T10:45:50;15.32;77.89
67275;DHT22;55463;52.324;5.122;2024-03-06T10:48:17;15.67;79.82
67275;DHT22;55463;52.324;5.122;2024-03-06T10:50:44;15.24;78.47
67275;DHT22;55463;52.324;5.122;2024-03-06T10:53:15;15.05;78.50
67275;DHT22;55463;52.324;5.122;2024-03-06T10:55:43;14.93;79.57
67275;DHT22;55463;52.324;5.122;2024-03-06T10:58:12;15.11;80.60
67275;DHT22;55463;52.324;5.122;2024-03-06T11:00:48;15.35;79.38
67275;DHT22;55463;52.324;5.122;2024-03-06T11:03:14;15.12;78.79
67275;DHT22;55463;52.324;5.122;2024-03-06T11:05:41;14.79;78.99
67275;DHT22;55463;52.324;5.122;2024-03-06T11:08:11;14.58;80.45
67275;DHT22;55463;52.324;5.122;2024-03-06T11:10:38;14.67;81.13
67275;DHT22;55463;52.324;5.122;2024-03-06T11:15:46;14.86;80.51
67275;DHT22;55463;52.324;5.122;2024-03-06T11:29:44;16.46;75.45
67275;DHT22;55463;52.324;5.122;2024-03-06T11:32:19;16.84;76.16
67275;DHT22;55463;52.324;5.122;2024-03-06T11:34:44;17.20;76.33
67275;DHT22;55463;52.324;5.122;2024-03-06T11:37:12;17.79;74.82
67275;DHT22;55463;52.324;5.122;2024-03-06T11:39:41;18.28;74.42
67275;DHT22;55463;52.324;5.122;2024-03-06T11:42:09;18.12;72.30
67275;DHT22;55463;52.324;5.122;2024-03-06T11:44:35;18.32;72.02
67275;DHT22;55463;52.324;5.122;2024-03-06T11:47:02;18.70;73.23
67275;DHT22;55463;52.324;5.122;2024-03-06T11:49:29;18.51;70.59
67275;DHT22;55463;52.324;5.122;2024-03-06T11:52:04;18.59;70.46
67275;DHT22;55463;52.324;5.122;2024-03-06T11:54:39;18.53;71.01
67275;DHT22;55463;52.324;5.122;2024-03-06T11:57:07;18.22;71.47
67275;DHT22;55463;52.324;5.122;2024-03-06T11:59:36;18.21;71.26
67275;DHT22;55463;52.324;5.122;2024-03-06T12:02:05;17.55;70.64
67275;DHT22;55463;52.324;5.122;2024-03-06T12:04:32;16.99;72.28
67275;DHT22;55463;52.324;5.122;2024-03-06T12:07:04;16.46;73.94
67275;DHT22;55463;52.324;5.122;2024-03-06T12:09:34;16.21;74.76
67275;DHT22;55463;52.324;5.122;2024-03-06T12:11:59;16.05;75.94
67275;DHT22;55463;52.324;5.122;2024-03-06T12:14:25;15.46;75.83
67275;DHT22;55463;52.324;5.122;2024-03-06T12:16:59;15.01;76.77
67275;DHT22;55463;52.324;5.122;2024-03-06T12:19:28;14.86;77.41
67275;DHT22;55463;52.324;5.122;2024-03-06T12:21:59;14.58;77.65
67275;DHT22;55463;52.324;5.122;2024-03-06T12:24:25;14.42;78.68
67275;DHT22;55463;52.324;5.122;2024-03-06T12:27:00;14.07;79.62
67275;DHT22;55463;52.324;5.122;2024-03-06T12:29:28;13.87;80.02
67275;DHT22;55463;52.324;5.122;2024-03-06T12:31:54;13.73;81.31
67275;DHT22;55463;52.324;5.122;2024-03-06T12:34:22;13.58;81.26
67275;DHT22;55463;52.324;5.122;2024-03-06T12:36:47;13.43;81.87
67275;DHT22;55463;52.324;5.122;2024-03-06T12:39:17;13.41;81.92
67275;DHT22;55463;52.324;5.122;2024-03-06T12:41:46;13.25;82.91
67275;DHT22;55463;52.324;5.122;2024-03-06T12:44:19;13.22;82.94
67275;DHT22;55463;52.324;5.122;2024-03-06T12:46:45;13.18;82.96
67275;DHT22;55463;52.324;5.122;2024-03-06T12:49:10;13.15;83.36
67275;DHT22;55463;52.324;5.122;2024-03-06T12:51:36;13.15;83.46
67275;DHT22;55463;52.324;5.122;2024-03-06T12:54:02;13.01;83.05
67275;DHT22;55463;52.324;5.122;2024-03-06T12:56:28;12.80;83.88
67275;DHT22;55463;52.324;5.122;2024-03-06T12:58:54;12.84;84.31
67275;DHT22;55463;52.324;5.122;2024-03-06T13:01:22;12.75;84.07
67275;DHT22;55463;52.324;5.122;2024-03-06T13:03:48;12.70;84.96
67275;DHT22;55463;52.324;5.122;2024-03-06T13:06:14;12.70;84.37
67275;DHT22;55463;52.324;5.122;2024-03-06T13:08:39;12.63;84.58
67275;DHT22;55463;52.324;5.122;2024-03-06T13:11:05;12.66;84.76
67275;DHT22;55463;52.324;5.122;2024-03-06T13:13:30;12.56;85.00
67275;DHT22;55463;52.324;5.122;2024-03-06T13:15:58;12.59;84.88
67275;DHT22;55463;52.324;5.122;2024-03-06T13:18:23;12.63;85.11
67275;DHT22;55463;52.324;5.122;2024-03-06T13:20:50;12.66;84.50
67275;DHT22;55463;52.324;5.122;2024-03-06T13:23:16;12.63;84.24
67275;DHT22;55463;52.324;5.122;2024-03-06T13:25:41;12.57;84.04
67275;DHT22;55463;52.324;5.122;2024-03-06T13:28:07;12.55;84.03
67275;DHT22;55463;52.324;5.122;2024-03-06T13:30:33;12.57;84.56
67275;DHT22;55463;52.324;5.122;2024-03-06T13:32:59;12.59;83.96
67275;DHT22;55463;52.324;5.122;2024-03-06T13:35:24;12.52;83.91
67275;DHT22;55463;52.324;5.122;2024-03-06T13:37:50;12.53;83.95
67275;DHT22;55463;52.324;5.122;2024-03-06T13:40:15;12.55;83.72
67275;DHT22;55463;52.324;5.122;2024-03-06T13:42:42;12.53;83.14
67275;DHT22;55463;52.324;5.122;2024-03-06T13:45:08;12.48;83.40
67275;DHT22;55463;52.324;5.122;2024-03-06T13:47:41;12.38;82.68
67275;DHT22;55463;52.324;5.122;2024-03-06T13:50:10;12.36;83.19
67275;DHT22;55463;52.324;5.122;2024-03-06T13:52:39;12.31;83.84
67275;DHT22;55463;52.324;5.122;2024-03-06T13:55:05;12.34;84.11
67275;DHT22;55463;52.324;5.122;2024-03-06T13:57:36;12.29;83.78
67275;DHT22;55463;52.324;5.122;2024-03-06T14:00:02;12.29;83.66
67275;DHT22;55463;52.324;5.122;2024-03-06T14:02:30;12.28;83.72
67275;DHT22;55463;52.324;5.122;2024-03-06T14:04:58;12.25;83.40
67275;DHT22;55463;52.324;5.122;2024-03-06T14:07:24;12.24;83.74
67275;DHT22;55463;52.324;5.122;2024-03-06T14:09:50;12.18;83.15
67275;DHT22;55463;52.324;5.122;2024-03-06T14:12:16;12.15;83.62
67275;DHT22;55463;52.324;5.122;2024-03-06T14:14:42;12.14;83.46
67275;DHT22;55463;52.324;5.122;2024-03-06T14:17:08;12.07;83.21
67275;DHT22;55463;52.324;5.122;2024-03-06T14:19:34;12.04;83.73
67275;DHT22;55463;52.324;5.122;2024-03-06T14:21:59;12.08;83.87
67275;DHT22;55463;52.324;5.122;2024-03-06T14:24:25;12.07;83.30
67275;DHT22;55463;52.324;5.122;2024-03-06T14:26:50;12.04;82.84
67275;DHT22;55463;52.324;5.122;2024-03-06T14:29:15;12.08;83.54
67275;DHT22;55463;52.324;5.122;2024-03-06T14:31:41;12.07;83.59
67275;DHT22;55463;52.324;5.122;2024-03-06T14:34:06;12.07;83.28
67275;DHT22;55463;52.324;5.122;2024-03-06T14:36:32;12.08;82.90
67275;DHT22;55463;52.324;5.122;2024-03-06T14:38:59;12.07;82.30
67275;DHT22;55463;52.324;5.122;2024-03-06T14:41:24;12.05;82.64
67275;DHT22;55463;52.324;5.122;2024-03-06T14:43:49;11.95;81.32
67275;DHT22;55463;52.324;5.122;2024-03-06T14:46:15;12.02;82.72
67275;DHT22;55463;52.324;5.122;2024-03-06T14:48:40;12.01;82.80
67275;DHT22;55463;52.324;5.122;2024-03-06T14:51:09;11.98;82.83
67275;DHT22;55463;52.324;5.122;2024-03-06T14:53:34;12.00;82.95
67275;DHT22;55463;52.324;5.122;2024-03-06T14:55:59;12.01;82.31
67275;DHT22;55463;52.324;5.122;2024-03-06T14:58:29;12.02;82.71
67275;DHT22;55463;52.324;5.122;2024-03-06T15:00:54;12.00;82.10
67275;DHT22;55463;52.324;5.122;2024-03-06T15:03:19;12.04;82.42
67275;DHT22;55463;52.324;5.122;2024-03-06T15:05:45;12.04;82.79
67275;DHT22;55463;52.324;5.122;2024-03-06T15:08:11;12.01;82.01
67275;DHT22;55463;52.324;5.122;2024-03-06T15:10:39;12.00;83.58
67275;DHT22;55463;52.324;5.122;2024-03-06T15:13:05;12.01;83.38
67275;DHT22;55463;52.324;5.122;2024-03-06T15:15:31;11.94;82.09
67275;DHT22;55463;52.324;5.122;2024-03-06T15:17:57;11.95;82.76
67275;DHT22;55463;52.324;5.122;2024-03-06T15:20:23;11.98;83.19
67275;DHT22;55463;52.324;5.122;2024-03-06T15:22:48;12.01;82.08
67275;DHT22;55463;52.324;5.122;2024-03-06T15:25:14;11.98;81.84
67275;DHT22;55463;52.324;5.122;2024-03-06T15:27:41;12.00;81.96
67275;DHT22;55463;52.324;5.122;2024-03-06T15:30:08;11.94;81.45
67275;DHT22;55463;52.324;5.122;2024-03-06T15:32:34;11.95;82.34
67275;DHT22;55463;52.324;5.122;2024-03-06T15:35:03;11.94;82.80
67275;DHT22;55463;52.324;5.122;2024-03-06T15:37:29;11.93;83.05
67275;DHT22;55463;52.324;5.122;2024-03-06T15:39:56;11.97;82.95
67275;DHT22;55463;52.324;5.122;2024-03-06T15:42:22;11.94;81.44
67275;DHT22;55463;52.324;5.122;2024-03-06T15:44:48;11.86;81.82
67275;DHT22;55463;52.324;5.122;2024-03-06T15:47:16;11.90;82.65
67275;DHT22;55463;52.324;5.122;2024-03-06T15:49:42;11.76;83.11